Time;durP1;ratioP1;P1;durP2;ratioP2;P2;SDS_P1;SDS_P2;PMS_P1;PMS_P2;Temp;Humidity;BMP_temperature;BMP_pressure;BME280_temperature;BME280_humidity;BME280_pressure;Samples;Min_cycle;Max_cycle;Signal;HPM_P1;HPM_P2
2022/05/21 00:00:12;;;;;;;;;;;;;;;13.56;100.00;99074.47;5095576;28;20298;-85
2022/05/21 00:02:39;;;;;;;;;;;;;;;13.72;100.00;99079.25;5078846;28;20405;-86
2022/05/21 00:05:06;;;;;;;;;;;;;;;13.94;100.00;99089.41;5062769;28;19924;-85
2022/05/21 00:07:33;;;;;;;;;;;;;;;14.02;100.00;99088.00;5078624;28;19930;-88
2022/05/21 00:10:01;;;;;;;;;;;;;;;14.14;100.00;99083.63;5045682;28;20012;-85
2022/05/21 00:12:28;;;;;;;;;;;;;;;13.85;100.00;99091.28;5078717;28;19924;-84
2022/05/21 00:14:57;;;;;;;;;;;;;;;13.60;100.00;99094.03;5078766;28;19924;-85
2022/05/21 00:17:25;;;;;;;;;;;;;;;13.54;100.00;99095.81;5062310;28;20019;-84
2022/05/21 00:19:52;;;;;;;;;;;;;;;13.64;100.00;99095.50;5045605;28;20378;-84
2022/05/21 00:22:19;;;;;;;;;;;;;;;13.68;100.00;99093.38;5062471;28;19924;-84
2022/05/21 00:24:49;;;;;;;;;;;;;;;13.77;100.00;99098.34;5079820;28;20015;-84
2022/05/21 00:27:20;;;;;;;;;;;;;;;13.44;100.00;99097.66;5095560;28;20295;-84
2022/05/21 00:29:47;;;;;;;;;;;;;;;13.91;100.00;99097.94;5078429;28;19924;-84
2022/05/21 00:32:15;;;;;;;;;;;;;;;13.77;100.00;99095.53;5078540;28;19930;-84
2022/05/21 00:34:42;;;;;;;;;;;;;;;13.85;100.00;99102.53;5045501;28;19947;-85
2022/05/21 00:37:09;;;;;;;;;;;;;;;13.80;100.00;99103.88;5078076;28;19931;-84
2022/05/21 00:39:37;;;;;;;;;;;;;;;13.43;100.00;99106.50;5094982;28;20049;-85
2022/05/21 00:42:05;;;;;;;;;;;;;;;13.76;100.00;99099.59;5078328;28;19924;-85
2022/05/21 00:44:33;;;;;;;;;;;;;;;13.33;100.00;99113.97;5061407;28;19938;-84
2022/05/21 00:47:01;;;;;;;;;;;;;;;13.81;100.00;99099.03;5096133;28;20335;-85
2022/05/21 00:49:33;;;;;;;;;;;;;;;14.06;100.00;99113.16;5095959;28;19931;-85
2022/05/21 00:52:05;;;;;;;;;;;;;;;13.84;100.00;99109.38;5078034;28;19924;-84
2022/05/21 00:54:34;;;;;;;;;;;;;;;14.04;100.00;99115.63;5078232;28;19924;-85
2022/05/21 00:57:15;;;;;;;;;;;;;;;13.94;100.00;99119.53;5078158;28;20016;-84
2022/05/21 00:59:50;;;;;;;;;;;;;;;13.46;100.00;99116.84;5078420;28;19924;-86
2022/05/21 01:02:20;;;;;;;;;;;;;;;13.55;100.00;99119.81;5095272;28;20394;-85
2022/05/21 01:04:47;;;;;;;;;;;;;;;13.72;100.00;99115.75;5077677;28;19929;-85
2022/05/21 01:07:15;;;;;;;;;;;;;;;13.89;100.00;99111.63;5094455;28;19924;-85
2022/05/21 01:09:50;;;;;;;;;;;;;;;14.06;100.00;99107.53;5077794;28;20011;-85
2022/05/21 01:12:17;;;;;;;;;;;;;;;13.82;100.00;99111.84;5095548;28;19924;-85
2022/05/21 01:14:49;;;;;;;;;;;;;;;13.95;100.00;99116.25;5077452;28;19976;-85
2022/05/21 01:17:25;;;;;;;;;;;;;;;13.76;100.00;99108.00;5077610;28;19924;-85
2022/05/21 01:20:18;;;;;;;;;;;;;;;13.60;100.00;99119.28;5094636;28;19928;-86
2022/05/21 01:22:53;;;;;;;;;;;;;;;13.84;100.00;99115.00;5078424;28;19966;-86
2022/05/21 01:25:24;;;;;;;;;;;;;;;14.01;100.00;99113.72;5044261;28;19928;-85
2022/05/21 01:27:52;;;;;;;;;;;;;;;14.11;100.00;99113.41;5044250;28;20016;-85
2022/05/21 01:30:23;;;;;;;;;;;;;;;13.93;100.00;99117.97;5077506;28;19946;-85
2022/05/21 01:32:51;;;;;;;;;;;;;;;13.78;100.00;99111.16;5094140;28;19977;-85
2022/05/21 01:35:19;;;;;;;;;;;;;;;13.39;100.00;99122.66;5077168;28;19924;-85
2022/05/21 01:37:46;;;;;;;;;;;;;;;13.68;100.00;99129.06;5093958;28;19924;-85
2022/05/21 01:40:14;;;;;;;;;;;;;;;13.23;100.00;99125.47;5076857;28;20009;-85
2022/05/21 01:42:42;;;;;;;;;;;;;;;13.77;100.00;99127.22;5060590;28;20022;-85
2022/05/21 01:45:09;;;;;;;;;;;;;;;13.38;100.00;99109.84;5077301;28;19970;-86
2022/05/21 01:47:42;;;;;;;;;;;;;;;13.20;100.00;99129.16;5076439;28;20007;-85
2022/05/21 01:50:09;;;;;;;;;;;;;;;13.25;100.00;99134.25;5076608;28;19970;-85
2022/05/21 01:52:39;;;;;;;;;;;;;;;13.38;100.00;99132.31;5077466;28;20435;-85
2022/05/21 01:55:07;;;;;;;;;;;;;;;13.20;100.00;99141.19;5076908;28;19931;-85
2022/05/21 01:57:34;;;;;;;;;;;;;;;13.35;100.00;99144.41;5043712;28;19924;-85
2022/05/21 02:00:02;;;;;;;;;;;;;;;13.37;100.00;99136.34;5060105;28;19928;-86
2022/05/21 02:02:37;;;;;;;;;;;;;;;13.17;100.00;99130.84;5061313;28;19924;-85
2022/05/21 02:05:05;;;;;;;;;;;;;;;13.21;100.00;99136.38;5076710;28;20317;-85
2022/05/21 02:07:32;;;;;;;;;;;;;;;13.31;100.00;99132.50;5076982;28;19928;-85
2022/05/21 02:09:59;;;;;;;;;;;;;;;13.31;100.00;99129.69;5076536;28;19924;-85
2022/05/21 02:12:27;;;;;;;;;;;;;;;13.53;100.00;99139.13;5060117;28;20268;-85
2022/05/21 02:14:55;;;;;;;;;;;;;;;13.30;100.00;99133.72;5093495;28;20019;-86
2022/05/21 02:17:23;;;;;;;;;;;;;;;13.47;100.00;99135.28;5076715;28;19927;-85
2022/05/21 02:19:50;;;;;;;;;;;;;;;13.15;100.00;99135.28;5093137;28;19924;-85
2022/05/21 02:22:17;;;;;;;;;;;;;;;13.45;100.00;99137.75;5076924;28;19947;-86
2022/05/21 02:24:44;;;;;;;;;;;;;;;13.58;100.00;99136.56;5076066;28;19924;-86
2022/05/21 02:27:13;;;;;;;;;;;;;;;13.25;100.00;99135.06;5093229;28;19940;-85
2022/05/21 02:29:41;;;;;;;;;;;;;;;13.13;100.00;99138.53;5059667;28;20012;-85
2022/05/21 02:32:10;;;;;;;;;;;;;;;13.18;100.00;99140.81;5060041;28;20384;-85
2022/05/21 02:34:38;;;;;;;;;;;;;;;13.02;100.00;99145.66;5076189;28;20345;-85
2022/05/21 02:39:51;;;;;;;;;;;;;;;13.15;100.00;99146.50;5093803;28;20422;-85
2022/05/21 02:45:10;;;;;;;;;;;;;;;13.01;100.00;99152.50;5093228;28;19924;-86
2022/05/21 02:47:37;;;;;;;;;;;;;;;13.22;100.00;99160.38;5075895;28;20026;-86
2022/05/21 02:50:06;;;;;;;;;;;;;;;13.08;100.00;99152.31;5093620;28;20287;-86
2022/05/21 02:52:34;;;;;;;;;;;;;;;12.75;100.00;99145.88;5075956;28;19924;-86
2022/05/21 02:55:01;;;;;;;;;;;;;;;13.06;100.00;99146.34;5093043;28;19924;-85
2022/05/21 02:57:29;;;;;;;;;;;;;;;13.03;100.00;99150.03;5094392;28;19924;-86
2022/05/21 02:59:59;;;;;;;;;;;;;;;13.02;100.00;99152.06;5075973;28;20343;-86
2022/05/21 03:02:29;;;;;;;;;;;;;;;12.99;100.00;99163.31;5076714;28;19924;-85
2022/05/21 03:04:58;;;;;;;;;;;;;;;12.65;100.00;99174.91;5075909;28;20438;-86
2022/05/21 03:07:25;;;;;;;;;;;;;;;12.83;100.00;99168.94;5075817;28;19924;-87
2022/05/21 03:12:39;;;;;;;;;;;;;;;12.65;100.00;99164.50;5093171;28;20374;-86
2022/05/21 03:15:06;;;;;;;;;;;;;;;12.83;100.00;99177.34;5075942;28;19931;-86
2022/05/21 03:17:34;;;;;;;;;;;;;;;12.86;100.00;99176.47;5076078;28;20290;-87
2022/05/21 03:20:03;;;;;;;;;;;;;;;13.04;100.00;99177.63;5075898;28;19928;-86
2022/05/21 03:22:31;;;;;;;;;;;;;;;12.81;100.00;99176.97;5075755;28;19924;-86
2022/05/21 03:24:58;;;;;;;;;;;;;;;12.93;100.00;99185.50;5092760;28;20454;-86
2022/05/21 03:27:25;;;;;;;;;;;;;;;13.04;100.00;99190.88;5092558;28;19930;-86
2022/05/21 03:29:53;;;;;;;;;;;;;;;13.09;100.00;99198.75;5092507;28;19925;-86
2022/05/21 03:32:20;;;;;;;;;;;;;;;13.23;100.00;99193.63;5059256;28;20413;-87
2022/05/21 03:34:47;;;;;;;;;;;;;;;13.11;100.00;99202.72;5058934;28;19978;-86
2022/05/21 03:37:14;;;;;;;;;;;;;;;12.87;100.00;99208.88;5075345;28;19924;-85
2022/05/21 03:39:41;;;;;;;;;;;;;;;12.93;100.00;99212.75;5058620;28;19993;-87
2022/05/21 03:42:09;;;;;;;;;;;;;;;13.28;100.00;99211.94;5076698;28;19939;-85
2022/05/21 03:44:39;;;;;;;;;;;;;;;13.32;100.00;99209.84;5047598;28;20015;-87
2022/05/21 03:47:07;;;;;;;;;;;;;;;13.31;100.00;99216.69;5046395;28;20026;-87
2022/05/21 03:49:34;;;;;;;;;;;;;;;13.30;100.00;99218.69;5079218;28;19924;-86
2022/05/21 03:52:01;;;;;;;;;;;;;;;13.11;100.00;99215.97;5079247;28;19924;-87
2022/05/21 03:54:28;;;;;;;;;;;;;;;13.25;100.00;99212.81;5062724;28;19924;-86
2022/05/21 03:56:56;;;;;;;;;;;;;;;12.94;100.00;99215.13;5062572;28;19924;-87
2022/05/21 03:59:23;;;;;;;;;;;;;;;13.59;100.00;99210.34;5062917;28;20443;-86
2022/05/21 04:01:50;;;;;;;;;;;;;;;13.25;100.00;99210.00;5062600;28;20016;-86
2022/05/21 04:04:17;;;;;;;;;;;;;;;13.26;100.00;99211.59;5095719;28;20386;-87
2022/05/21 04:06:44;;;;;;;;;;;;;;;12.87;100.00;99206.88;5045420;28;19924;-85
2022/05/21 04:09:11;;;;;;;;;;;;;;;13.12;100.00;99221.13;5062639;28;20399;-86
2022/05/21 04:11:39;;;;;;;;;;;;;;;13.06;100.00;99205.25;5079394;28;20014;-86
2022/05/21 04:14:07;;;;;;;;;;;;;;;12.98;100.00;99210.19;5079294;28;19924;-86
2022/05/21 04:16:36;;;;;;;;;;;;;;;12.61;100.00;99203.06;5078674;28;19924;-85
2022/05/21 04:19:04;;;;;;;;;;;;;;;12.95;100.00;99210.31;5095487;28;20010;-86
2022/05/21 04:21:31;;;;;;;;;;;;;;;12.93;100.00;99218.34;5096032;28;19924;-86
2022/05/21 04:23:58;;;;;;;;;;;;;;;13.10;100.00;99217.19;5078732;28;19931;-86
2022/05/21 04:26:25;;;;;;;;;;;;;;;13.00;100.00;99223.81;5078858;28;19974;-87
2022/05/21 04:28:52;;;;;;;;;;;;;;;12.80;100.00;99221.03;5079094;28;20023;-86
2022/05/21 04:31:20;;;;;;;;;;;;;;;12.90;100.00;99224.84;5095516;28;20022;-86
2022/05/21 04:33:47;;;;;;;;;;;;;;;13.28;100.00;99240.81;5078624;28;20001;-86
2022/05/21 04:36:20;;;;;;;;;;;;;;;12.93;100.00;99241.59;5061597;28;19932;-86
2022/05/21 04:38:48;;;;;;;;;;;;;;;12.93;100.00;99232.38;5095255;28;20676;-86
2022/05/21 04:41:16;;;;;;;;;;;;;;;12.51;100.00;99222.91;5078620;28;19924;-86
2022/05/21 04:43:44;;;;;;;;;;;;;;;12.40;100.00;99214.69;5061755;28;19931;-86
2022/05/21 04:46:11;;;;;;;;;;;;;;;12.34;100.00;99216.41;5061372;28;19924;-86
2022/05/21 04:48:39;;;;;;;;;;;;;;;12.46;100.00;99224.16;5061288;28;20394;-86
2022/05/21 04:51:11;;;;;;;;;;;;;;;12.44;100.00;99234.25;5045547;28;19931;-87
2022/05/21 04:53:38;;;;;;;;;;;;;;;12.59;100.00;99239.13;5062119;28;20279;-87
2022/05/21 04:56:05;;;;;;;;;;;;;;;12.61;100.00;99231.09;5061487;28;19924;-86
2022/05/21 04:58:46;;;;;;;;;;;;;;;12.82;100.00;99223.41;5080289;28;19973;-87
2022/05/21 05:01:13;;;;;;;;;;;;;;;12.96;100.00;99234.31;5061338;28;19967;-86
2022/05/21 05:03:41;;;;;;;;;;;;;;;13.26;100.00;99248.84;5061591;28;19924;-87
2022/05/21 05:06:08;;;;;;;;;;;;;;;13.40;100.00;99242.91;5094514;28;19924;-88
2022/05/21 05:08:38;;;;;;;;;;;;;;;12.99;100.00;99236.25;5061038;28;19924;-86
2022/05/21 05:11:06;;;;;;;;;;;;;;;13.21;100.00;99251.41;5077951;28;19931;-86
2022/05/21 05:13:33;;;;;;;;;;;;;;;13.13;100.00;99261.97;5078037;28;19971;-86
2022/05/21 05:16:01;;;;;;;;;;;;;;;12.99;100.00;99258.69;5077839;28;19931;-86
2022/05/21 05:18:30;;;;;;;;;;;;;;;13.06;100.00;99256.53;5094296;28;19924;-87
2022/05/21 05:20:57;;;;;;;;;;;;;;;12.57;100.00;99243.59;5077495;28;20298;-86
2022/05/21 05:23:25;;;;;;;;;;;;;;;12.95;100.00;99255.19;5061022;28;19924;-78
2022/05/21 05:25:53;;;;;;;;;;;;;;;12.87;100.00;99260.16;5093968;28;19935;-84
2022/05/21 05:28:21;;;;;;;;;;;;;;;12.67;100.00;99265.00;5060406;28;19924;-82
2022/05/21 05:30:48;;;;;;;;;;;;;;;12.87;100.00;99268.56;5094167;28;19924;-81
2022/05/21 05:33:16;;;;;;;;;;;;;;;13.03;100.00;99270.63;5094031;28;19977;-81
2022/05/21 05:35:43;;;;;;;;;;;;;;;12.97;100.00;99277.94;5093836;28;19935;-81
2022/05/21 05:38:12;;;;;;;;;;;;;;;13.26;100.00;99281.72;5077503;28;19924;-83
2022/05/21 05:40:40;;;;;;;;;;;;;;;13.05;100.00;99280.22;5077079;28;19924;-80
2022/05/21 05:43:07;;;;;;;;;;;;;;;12.75;100.00;99275.63;5095460;28;19925;-84
2022/05/21 05:45:35;;;;;;;;;;;;;;;12.84;100.00;99277.06;5093759;28;19977;-85
2022/05/21 05:48:03;;;;;;;;;;;;;;;12.86;100.00;99271.81;5060594;28;19924;-86
2022/05/21 05:50:31;;;;;;;;;;;;;;;12.88;100.00;99278.56;5077035;28;19968;-86
2022/05/21 05:53:03;;;;;;;;;;;;;;;12.48;100.00;99272.19;5093724;28;20398;-81
2022/05/21 05:55:31;;;;;;;;;;;;;;;12.66;100.00;99267.00;5094089;28;19969;-83
2022/05/21 05:57:58;;;;;;;;;;;;;;;12.84;100.00;99269.44;5076885;28;19924;-83
2022/05/21 06:00:26;;;;;;;;;;;;;;;12.66;100.00;99266.22;5094617;28;19924;-82
2022/05/21 06:02:59;;;;;;;;;;;;;;;12.75;100.00;99270.00;5093756;28;19928;-82
2022/05/21 06:05:28;;;;;;;;;;;;;;;12.68;100.00;99264.56;5076340;28;19924;-83
2022/05/21 06:07:56;;;;;;;;;;;;;;;12.66;100.00;99269.81;5060100;28;19924;-81
2022/05/21 06:10:25;;;;;;;;;;;;;;;12.56;100.00;99272.81;5094586;28;19928;-81
2022/05/21 06:12:53;;;;;;;;;;;;;;;12.62;100.00;99271.91;5076591;28;19924;-81
2022/05/21 06:15:20;;;;;;;;;;;;;;;12.69;100.00;99277.34;5094099;28;19947;-81
2022/05/21 06:17:50;;;;;;;;;;;;;;;12.83;100.00;99281.09;5094442;28;20371;-81
2022/05/21 06:20:19;;;;;;;;;;;;;;;13.02;100.00;99278.28;5091852;28;19924;-81
2022/05/21 06:22:47;;;;;;;;;;;;;;;12.85;100.00;99271.00;5076689;28;19947;-81
2022/05/21 06:25:18;;;;;;;;;;;;;;;12.66;100.00;99278.22;5094727;28;19931;-82
2022/05/21 06:27:46;;;;;;;;;;;;;;;12.81;100.00;99280.72;5093347;28;19931;-81
2022/05/21 06:30:13;;;;;;;;;;;;;;;12.75;100.00;99270.00;5076242;28;19928;-82
2022/05/21 06:32:41;;;;;;;;;;;;;;;12.71;100.00;99274.91;5094238;28;19924;-80
2022/05/21 06:35:09;;;;;;;;;;;;;;;12.71;100.00;99274.91;5094189;28;19924;-84
2022/05/21 06:37:36;;;;;;;;;;;;;;;12.88;100.00;99266.53;5076183;28;20007;-79
2022/05/21 06:40:04;;;;;;;;;;;;;;;12.84;100.00;99275.03;5076331;28;19974;-80
2022/05/21 06:42:31;;;;;;;;;;;;;;;12.87;100.00;99281.78;5094483;28;19931;-79
2022/05/21 06:44:59;;;;;;;;;;;;;;;12.68;100.00;99278.56;5094092;28;19928;-79
2022/05/21 06:47:26;;;;;;;;;;;;;;;12.68;100.00;99275.78;5076408;28;19947;-80
2022/05/21 06:49:55;;;;;;;;;;;;;;;12.87;100.00;99276.19;5093339;28;19982;-79
2022/05/21 06:52:24;;;;;;;;;;;;;;;12.63;100.00;99272.69;5094275;28;19924;-80
2022/05/21 06:54:51;;;;;;;;;;;;;;;12.64;100.00;99274.28;5092981;28;20478;-79
2022/05/21 06:57:19;;;;;;;;;;;;;;;12.84;100.00;99283.47;5094536;28;20368;-80
2022/05/21 06:59:46;;;;;;;;;;;;;;;12.75;100.00;99286.06;5094203;28;19928;-80
2022/05/21 07:02:13;;;;;;;;;;;;;;;12.64;100.00;99275.06;5094218;28;20392;-79
2022/05/21 07:07:35;;;;;;;;;;;;;;;13.01;100.00;99276.69;5094134;28;19963;-79
2022/05/21 07:10:04;;;;;;;;;;;;;;;12.93;100.00;99271.63;5093114;28;20540;-80
2022/05/21 07:12:31;;;;;;;;;;;;;;;12.80;100.00;99270.75;5092878;28;19924;-79
2022/05/21 07:14:59;;;;;;;;;;;;;;;12.95;100.00;99267.16;5094006;28;19930;-79
2022/05/21 07:17:26;;;;;;;;;;;;;;;12.98;100.00;99273.94;5079148;28;20375;-81
2022/05/21 07:19:53;;;;;;;;;;;;;;;13.03;100.00;99274.25;5080381;28;19951;-80
2022/05/21 07:22:20;;;;;;;;;;;;;;;12.93;100.00;99274.44;5080121;28;20364;-81
2022/05/21 07:24:48;;;;;;;;;;;;;;;13.14;100.00;99285.22;5096898;28;19924;-80
2022/05/21 07:27:15;;;;;;;;;;;;;;;13.13;100.00;99283.66;5096436;28;19932;-79
2022/05/21 07:29:43;;;;;;;;;;;;;;;13.24;100.00;99298.22;5063028;28;20023;-76
2022/05/21 07:32:21;;;;;;;;;;;;;;;13.31;100.00;99284.81;5096444;28;19959;-85
2022/05/21 07:34:48;;;;;;;;;;;;;;;13.59;100.00;99288.94;5079499;28;19931;-88
2022/05/21 07:37:15;;;;;;;;;;;;;;;13.73;100.00;99285.81;5097723;28;19924;-91
2022/05/21 07:39:42;;;;;;;;;;;;;;;13.69;100.00;99287.91;5062889;28;20044;-89
2022/05/21 07:42:09;;;;;;;;;;;;;;;13.53;100.00;99290.69;5096348;28;19947;-87
2022/05/21 07:44:37;;;;;;;;;;;;;;;14.15;100.00;99296.72;5063022;28;20023;-88
2022/05/21 07:47:04;;;;;;;;;;;;;;;14.16;100.00;99308.78;5062591;28;19989;-88
2022/05/21 07:49:31;;;;;;;;;;;;;;;14.62;100.00;99319.56;5096156;28;19924;-88
2022/05/21 07:51:59;;;;;;;;;;;;;;;14.65;100.00;99321.47;5079197;28;19924;-88
2022/05/21 07:54:27;;;;;;;;;;;;;;;14.82;100.00;99328.63;5079012;28;19931;-90
2022/05/21 07:56:54;;;;;;;;;;;;;;;14.98;100.00;99320.09;5079429;28;19930;-90
2022/05/21 07:59:23;;;;;;;;;;;;;;;14.72;100.00;99326.13;5096346;28;19930;-89
2022/05/21 08:01:50;;;;;;;;;;;;;;;14.49;100.00;99329.97;5062420;28;19931;-87
2022/05/21 08:04:17;;;;;;;;;;;;;;;14.66;100.00;99339.91;5062665;28;20287;-88
2022/05/21 08:06:44;;;;;;;;;;;;;;;14.61;100.00;99343.31;5078941;28;19924;-87
2022/05/21 08:09:11;;;;;;;;;;;;;;;14.55;100.00;99347.09;5078754;28;19928;-89
2022/05/21 08:11:39;;;;;;;;;;;;;;;14.52;100.00;99345.97;5079469;28;19924;-84
2022/05/21 08:14:08;;;;;;;;;;;;;;;14.32;100.00;99340.47;5055570;28;19987;-88
2022/05/21 08:16:36;;;;;;;;;;;;;;;14.38;100.00;99340.72;5055988;28;20011;-89
2022/05/21 08:19:04;;;;;;;;;;;;;;;14.10;100.00;99330.19;5073877;28;19952;-86
2022/05/21 08:21:32;;;;;;;;;;;;;;;14.07;100.00;99329.03;5088958;28;19928;-87
2022/05/21 08:29:22;;;;;;;;;;;;;;;14.29;100.00;99334.94;5092062;28;20009;-85
2022/05/21 08:31:50;;;;;;;;;;;;;;;14.54;100.00;99339.91;5075956;28;19981;-85
2022/05/21 08:34:17;;;;;;;;;;;;;;;14.37;100.00;99330.72;5093028;28;19928;-84
2022/05/21 08:36:45;;;;;;;;;;;;;;;14.26;100.00;99327.38;5092593;28;20472;-85
2022/05/21 08:39:12;;;;;;;;;;;;;;;14.30;100.00;99340.13;5093681;28;19924;-85
2022/05/21 08:41:53;;;;;;;;;;;;;;;14.18;100.00;99325.97;5094955;28;19923;-85
2022/05/21 08:44:30;;;;;;;;;;;;;;;14.26;100.00;99330.19;5079035;28;19923;-85
2022/05/21 08:47:03;;;;;;;;;;;;;;;14.40;100.00;99327.00;5096142;28;20299;-86
2022/05/21 08:49:37;;;;;;;;;;;;;;;14.37;100.00;99316.66;5070852;28;20268;-86
2022/05/21 08:52:07;;;;;;;;;;;;;;;14.46;100.00;99320.38;5075424;28;19951;-83
2022/05/21 08:54:38;;;;;;;;;;;;;;;14.73;100.00;99322.06;5092147;28;19986;-85
2022/05/21 08:57:08;;;;;;;;;;;;;;;14.60;100.00;99319.19;5059102;28;20280;-86
2022/05/21 08:59:38;;;;;;;;;;;;;;;14.54;100.00;99326.59;5093116;28;19928;-85
2022/05/21 09:02:11;;;;;;;;;;;;;;;14.55;100.00;99316.94;5093014;28;19931;-80
2022/05/21 09:04:38;;;;;;;;;;;;;;;14.68;100.00;99322.63;5092823;28;20038;-80
2022/05/21 09:07:11;;;;;;;;;;;;;;;14.45;100.00;99334.88;5058543;28;19978;-85
2022/05/21 09:09:49;;;;;;;;;;;;;;;14.57;100.00;99336.97;5075793;28;19924;-85
2022/05/21 09:12:18;;;;;;;;;;;;;;;14.72;100.00;99343.00;5058766;28;19924;-84
2022/05/21 09:14:49;;;;;;;;;;;;;;;14.86;100.00;99322.91;5091731;28;19932;-87
2022/05/21 09:17:18;;;;;;;;;;;;;;;15.01;100.00;99330.47;5092145;28;19924;-85
2022/05/21 09:19:47;;;;;;;;;;;;;;;15.11;100.00;99322.94;5092180;28;19924;-86
2022/05/21 09:22:16;;;;;;;;;;;;;;;14.76;100.00;99324.78;5093757;28;20005;-88
2022/05/21 09:25:01;;;;;;;;;;;;;;;14.59;100.00;99317.63;5092369;28;19924;-87
2022/05/21 09:27:28;;;;;;;;;;;;;;;14.65;100.00;99321.47;5058330;28;20320;-87
2022/05/21 09:30:14;;;;;;;;;;;;;;;14.45;100.00;99320.84;5058489;28;19924;-89
2022/05/21 09:32:44;;;;;;;;;;;;;;;14.37;100.00;99316.66;5091817;28;19950;-86
2022/05/21 09:35:17;;;;;;;;;;;;;;;14.52;100.00;99317.84;5093756;28;20015;-84
2022/05/21 09:37:44;;;;;;;;;;;;;;;14.84;100.00;99317.72;5093638;28;19928;-84
2022/05/21 09:40:22;;;;;;;;;;;;;;;14.66;100.00;99316.66;5092364;28;19924;-84
2022/05/21 09:45:38;;;;;;;;;;;;;;;14.37;100.00;99320.22;5093882;28;19970;-84
2022/05/21 09:48:05;;;;;;;;;;;;;;;14.70;100.00;99320.16;5075602;28;19924;-84
2022/05/21 09:50:42;;;;;;;;;;;;;;;14.67;100.00;99319.03;5092665;28;19924;-84
2022/05/21 09:53:25;;;;;;;;;;;;;;;14.83;100.00;99318.19;5092411;28;20352;-83
2022/05/21 09:55:56;;;;;;;;;;;;;;;15.07;100.00;99323.06;5075414;28;19928;-85
2022/05/21 09:58:24;;;;;;;;;;;;;;;14.90;100.00;99321.56;5091945;28;20509;-85
2022/05/21 10:00:55;;;;;;;;;;;;;;;14.79;100.00;99326.72;5076102;28;19931;-84
2022/05/21 10:03:58;;;;;;;;;;;;;;;14.92;100.00;99335.97;5093494;28;20443;-88
2022/05/21 10:06:31;;;;;;;;;;;;;;;15.27;100.00;99340.53;4980436;28;19925;-85
2022/05/21 10:12:17;;;;;;;;;;;;;;;15.03;100.00;99347.72;5028739;28;19925;-82
2022/05/21 10:14:48;;;;;;;;;;;;;;;15.47;100.00;99334.72;5029253;28;19929;-85
2022/05/21 10:17:41;;;;;;;;;;;;;;;15.30;100.00;99321.94;5013263;28;19953;-85
2022/05/21 10:20:34;;;;;;;;;;;;;;;15.50;100.00;99326.19;4999255;28;20295;-85
2022/05/21 10:23:09;;;;;;;;;;;;;;;15.59;100.00;99333.94;5012623;28;20389;-85
2022/05/21 10:25:43;;;;;;;;;;;;;;;15.88;100.00;99324.13;5012522;28;19937;-86
2022/05/21 10:28:10;;;;;;;;;;;;;;;15.78;100.00;99338.56;5028772;28;20017;-85
2022/05/21 10:30:57;;;;;;;;;;;;;;;16.03;100.00;99342.16;5012368;28;19959;-88
2022/05/21 10:33:24;;;;;;;;;;;;;;;16.06;100.00;99335.59;4997284;28;19926;-89
2022/05/21 10:35:52;;;;;;;;;;;;;;;16.59;100.00;99330.16;4982622;28;19987;-90
2022/05/21 10:38:37;;;;;;;;;;;;;;;16.52;100.00;99333.25;4982448;28;20329;-88
2022/05/21 10:41:08;;;;;;;;;;;;;;;16.45;100.00;99333.50;5044772;28;19931;-89
2022/05/21 10:43:35;;;;;;;;;;;;;;;16.46;100.00;99324.59;5053770;28;20307;-88
2022/05/21 10:46:25;;;;;;;;;;;;;;;16.36;100.00;99324.94;5020859;28;19925;-87
2022/05/21 10:49:00;;;;;;;;;;;;;;;16.96;100.00;99321.53;5071462;28;19924;-88
2022/05/21 10:51:33;;;;;;;;;;;;;;;17.28;100.00;99318.25;5071123;28;19925;-88
2022/05/21 10:54:10;;;;;;;;;;;;;;;17.21;100.00;99318.53;5071514;28;19973;-88
2022/05/21 10:56:49;;;;;;;;;;;;;;;17.09;100.00;99321.44;5054418;28;19981;-87
2022/05/21 10:59:33;;;;;;;;;;;;;;;17.19;100.00;99320.25;5071666;28;19936;-88
2022/05/21 11:02:36;;;;;;;;;;;;;;;17.61;100.00;99329.91;5054812;28;19966;-88
2022/05/21 11:05:22;;;;;;;;;;;;;;;17.83;100.00;99330.59;4984674;28;19956;-88
2022/05/21 11:07:57;;;;;;;;;;;;;;;17.70;100.00;99335.59;5000880;28;20111;-88
2022/05/21 11:10:45;;;;;;;;;;;;;;;17.16;100.00;99330.41;4985133;28;19966;-88
2022/05/21 11:13:27;;;;;;;;;;;;;;;17.05;100.00;99334.91;4995049;28;20010;-88
2022/05/21 11:16:03;;;;;;;;;;;;;;;17.31;100.00;99327.84;5034002;28;19928;-87
2022/05/21 11:18:42;;;;;;;;;;;;;;;17.77;100.00;99324.78;4984866;28;20471;-89
2022/05/21 11:21:41;;;;;;;;;;;;;;;17.86;100.00;99318.38;5090517;28;20330;-90
2022/05/21 11:24:28;;;;;;;;;;;;;;;18.04;100.00;99321.22;5039608;28;19980;-89
2022/05/21 11:27:00;;;;;;;;;;;;;;;18.41;100.00;99299.47;5056295;28;20431;-90
2022/05/21 11:29:27;;;;;;;;;;;;;;;18.56;100.00;99301.22;5039402;28;20376;-91
2022/05/21 11:37:41;;;;;;;;;;;;;;;18.07;100.00;99316.72;5038724;28;20299;-87
2022/05/21 11:40:28;;;;;;;;;;;;;;;17.88;100.00;99311.00;5055550;28;19928;-88
2022/05/21 11:42:56;;;;;;;;;;;;;;;18.25;100.00;99326.00;5039212;28;20023;-88
2022/05/21 11:45:24;;;;;;;;;;;;;;;17.78;100.00;99311.44;5039178;28;19924;-89
2022/05/21 11:47:53;;;;;;;;;;;;;;;18.39;100.00;99310.50;5072162;28;20376;-89
2022/05/21 11:50:24;;;;;;;;;;;;;;;18.44;100.00;99313.50;5071921;28;19924;-88
2022/05/21 11:52:53;;;;;;;;;;;;;;;18.04;100.00;99321.22;5055486;28;20011;-88
2022/05/21 11:55:28;;;;;;;;;;;;;;;18.53;100.00;99316.31;5055139;28;19924;-89
2022/05/21 11:58:00;;;;;;;;;;;;;;;18.80;100.00;99316.31;5038727;28;19975;-90
2022/05/21 12:00:27;;;;;;;;;;;;;;;18.95;100.00;99319.28;5038943;28;19924;-89
2022/05/21 12:02:55;;;;;;;;;;;;;;;19.06;100.00;99317.53;5038737;28;20334;-89
2022/05/21 12:05:46;;;;;;;;;;;;;;;18.93;100.00;99316.91;5055103;28;19924;-89
2022/05/21 12:08:22;;;;;;;;;;;;;;;18.56;100.00;99304.06;5046727;28;19931;-89
2022/05/21 12:10:55;;;;;;;;;;;;;;;18.87;100.00;99315.97;5055997;28;19928;-89
2022/05/21 12:13:42;;;;;;;;;;;;;;;18.89;100.00;99309.84;5064545;28;19924;-89
2022/05/21 12:16:14;;;;;;;;;;;;;;;19.15;100.00;99300.53;5025751;28;19924;-90
2022/05/21 12:18:46;;;;;;;;;;;;;;;19.53;100.00;99297.91;5038836;28;19964;-90
2022/05/21 12:24:05;;;;;;;;;;;;;;;19.41;100.00;99304.56;5038423;28;19924;-89
2022/05/21 12:26:37;;;;;;;;;;;;;;;19.61;100.00;99301.94;5071293;28;19931;-90
2022/05/21 12:29:18;;;;;;;;;;;;;;;20.14;100.00;99295.72;5038894;28;19960;-90
2022/05/21 12:31:50;;;;;;;;;;;;;;;20.43;100.00;99290.94;5048381;28;19931;-90
2022/05/21 12:34:17;;;;;;;;;;;;;;;20.47;100.00;99302.09;5025432;28;19924;-90
2022/05/21 12:36:50;;;;;;;;;;;;;;;20.41;100.00;99298.38;5041987;28;19924;-89
2022/05/21 12:39:22;;;;;;;;;;;;;;;19.92;100.00;99303.72;5041496;28;20015;-89
2022/05/21 12:41:50;;;;;;;;;;;;;;;19.96;100.00;99299.44;5008668;28;20062;-90
2022/05/21 12:44:35;;;;;;;;;;;;;;;20.22;100.00;99299.78;5058156;28;20027;-90
2022/05/21 12:47:03;;;;;;;;;;;;;;;20.45;100.00;99296.13;5024886;28;20023;-90
2022/05/21 12:49:30;;;;;;;;;;;;;;;20.31;100.00;99294.03;5057875;28;19950;-90
2022/05/21 12:51:58;;;;;;;;;;;;;;;20.40;100.00;99293.97;5041737;28;20392;-89
2022/05/21 12:54:27;;;;;;;;;;;;;;;20.45;100.00;99311.09;5024709;28;20372;-91
2022/05/21 12:56:55;;;;;;;;;;;;;;;20.25;100.00;99295.97;5041345;28;19925;-91
2022/05/21 12:59:24;;;;;;;;;;;;;;;20.06;100.00;99300.94;5076269;28;19931;-90
2022/05/21 13:01:51;;;;;;;;;;;;;;;19.32;100.00;99307.44;5040874;28;19924;-89
2022/05/21 13:04:23;;;;;;;;;;;;;;;19.01;100.00;99315.34;5024696;28;19994;-90
2022/05/21 13:06:53;;;;;;;;;;;;;;;19.38;100.00;99319.69;5041156;28;19931;-87
2022/05/21 13:09:20;;;;;;;;;;;;;;;19.47;100.00;99316.84;5024439;28;19928;-87
2022/05/21 13:11:47;;;;;;;;;;;;;;;19.32;100.00;99313.09;5040961;28;20019;-90
2022/05/21 13:14:21;;;;;;;;;;;;;;;19.76;100.00;99298.44;5040912;28;20134;-89
2022/05/21 13:16:54;;;;;;;;;;;;;;;19.64;100.00;99303.84;5057154;28;19924;-88
2022/05/21 13:20:00;;;;;;;;;;;;;;;20.14;100.00;99292.88;5023751;28;20361;-87
2022/05/21 13:22:39;;;;;;;;;;;;;;;19.92;100.00;99306.56;4993342;28;20020;-88